sensor_id;sensor_type;location;lat;lon;timestamp;temperature;humidity
41876;DHT22;27555;50.808;4.402;2022-09-20T00:02:18;13.80;99.90
41876;DHT22;27555;50.808;4.402;2022-09-20T00:04:46;13.70;99.90
41876;DHT22;27555;50.808;4.402;2022-09-20T00:07:12;13.70;99.90
41876;DHT22;27555;50.808;4.402;2022-09-20T00:09:37;13.70;99.90
41876;DHT22;27555;50.808;4.402;2022-09-20T00:12:05;13.70;99.90
41876;DHT22;27555;50.808;4.402;2022-09-20T00:14:31;13.60;99.90
41876;DHT22;27555;50.808;4.402;2022-09-20T00:16:56;13.60;99.90
41876;DHT22;27555;50.808;4.402;2022-09-20T00:19:23;13.50;99.90
41876;DHT22;27555;50.808;4.402;2022-09-20T00:21:49;13.50;99.90
41876;DHT22;27555;50.808;4.402;2022-09-20T00:24:15;13.40;99.90
41876;DHT22;27555;50.808;4.402;2022-09-20T00:26:41;13.30;99.90
41876;DHT22;27555;50.808;4.402;2022-09-20T00:29:06;13.20;99.90
41876;DHT22;27555;50.808;4.402;2022-09-20T00:31:32;13.20;99.90
41876;DHT22;27555;50.808;4.402;2022-09-20T00:33:58;13.20;99.90
41876;DHT22;27555;50.808;4.402;2022-09-20T00:36:43;13.10;99.90
41876;DHT22;27555;50.808;4.402;2022-09-20T00:39:11;13.10;99.90
41876;DHT22;27555;50.808;4.402;2022-09-20T00:41:37;13.20;99.90
41876;DHT22;27555;50.808;4.402;2022-09-20T00:50:07;13.10;99.90
41876;DHT22;27555;50.808;4.402;2022-09-20T00:52:37;13.00;99.90
41876;DHT22;27555;50.808;4.402;2022-09-20T00:55:06;13.00;99.90
41876;DHT22;27555;50.808;4.402;2022-09-20T00:57:33;12.90;99.90
41876;DHT22;27555;50.808;4.402;2022-09-20T01:00:03;12.90;99.90
41876;DHT22;27555;50.808;4.402;2022-09-20T01:02:31;12.80;99.90
41876;DHT22;27555;50.808;4.402;2022-09-20T01:04:58;12.70;99.90
41876;DHT22;27555;50.808;4.402;2022-09-20T01:07:24;12.70;99.90
41876;DHT22;27555;50.808;4.402;2022-09-20T01:09:51;12.70;99.90
41876;DHT22;27555;50.808;4.402;2022-09-20T01:12:23;12.80;99.90
41876;DHT22;27555;50.808;4.402;2022-09-20T01:14:50;12.70;99.90
41876;DHT22;27555;50.808;4.402;2022-09-20T01:17:18;12.70;99.90
41876;DHT22;27555;50.808;4.402;2022-09-20T01:20:27;12.70;99.90
41876;DHT22;27555;50.808;4.402;2022-09-20T01:25:57;12.70;99.90
41876;DHT22;27555;50.808;4.402;2022-09-20T01:28:28;12.70;99.90
41876;DHT22;27555;50.808;4.402;2022-09-20T01:36:43;12.70;99.90
41876;DHT22;27555;50.808;4.402;2022-09-20T01:42:08;12.80;99.90
41876;DHT22;27555;50.808;4.402;2022-09-20T01:47:29;12.70;99.90
41876;DHT22;27555;50.808;4.402;2022-09-20T01:50:06;12.70;99.90
41876;DHT22;27555;50.808;4.402;2022-09-20T01:52:51;12.60;99.90
41876;DHT22;27555;50.808;4.402;2022-09-20T01:58:11;12.60;99.90
41876;DHT22;27555;50.808;4.402;2022-09-20T02:01:17;12.70;99.90
41876;DHT22;27555;50.808;4.402;2022-09-20T02:15:33;12.80;99.90
41876;DHT22;27555;50.808;4.402;2022-09-20T02:20:51;12.90;99.90
41876;DHT22;27555;50.808;4.402;2022-09-20T02:26:15;13.00;99.90
41876;DHT22;27555;50.808;4.402;2022-09-20T02:29:07;12.90;99.90
41876;DHT22;27555;50.808;4.402;2022-09-20T02:32:06;12.90;99.90
41876;DHT22;27555;50.808;4.402;2022-09-20T02:34:45;12.80;99.90
41876;DHT22;27555;50.808;4.402;2022-09-20T02:37:29;12.80;99.90
41876;DHT22;27555;50.808;4.402;2022-09-20T02:40:19;12.90;99.90
41876;DHT22;27555;50.808;4.402;2022-09-20T02:43:07;13.00;99.90
41876;DHT22;27555;50.808;4.402;2022-09-20T02:45:47;13.00;99.90
41876;DHT22;27555;50.808;4.402;2022-09-20T02:48:19;12.90;99.90
41876;DHT22;27555;50.808;4.402;2022-09-20T02:51:11;12.80;99.90
41876;DHT22;27555;50.808;4.402;2022-09-20T02:59:03;12.60;99.90
41876;DHT22;27555;50.808;4.402;2022-09-20T03:01:56;12.70;99.90
41876;DHT22;27555;50.808;4.402;2022-09-20T03:18:16;12.70;99.90
41876;DHT22;27555;50.808;4.402;2022-09-20T03:29:02;13.10;99.90
41876;DHT22;27555;50.808;4.402;2022-09-20T03:31:52;13.00;99.90
41876;DHT22;27555;50.808;4.402;2022-09-20T03:40:00;13.10;99.90
41876;DHT22;27555;50.808;4.402;2022-09-20T03:42:29;13.10;99.90
41876;DHT22;27555;50.808;4.402;2022-09-20T03:48:17;13.20;99.90
41876;DHT22;27555;50.808;4.402;2022-09-20T03:51:12;13.00;99.90
41876;DHT22;27555;50.808;4.402;2022-09-20T03:57:02;12.90;99.90
41876;DHT22;27555;50.808;4.402;2022-09-20T03:59:43;13.00;99.90
41876;DHT22;27555;50.808;4.402;2022-09-20T04:04:54;13.10;99.90
41876;DHT22;27555;50.808;4.402;2022-09-20T04:16:09;13.10;99.90
41876;DHT22;27555;50.808;4.402;2022-09-20T04:18:41;13.20;99.90
41876;DHT22;27555;50.808;4.402;2022-09-20T04:22:08;13.40;99.90
41876;DHT22;27555;50.808;4.402;2022-09-20T04:26:46;13.20;99.90
41876;DHT22;27555;50.808;4.402;2022-09-20T04:30:33;13.30;99.90
41876;DHT22;27555;50.808;4.402;2022-09-20T04:33:12;13.30;99.90
41876;DHT22;27555;50.808;4.402;2022-09-20T04:35:59;13.10;99.90
41876;DHT22;27555;50.808;4.402;2022-09-20T04:44:37;13.10;99.90
41876;DHT22;27555;50.808;4.402;2022-09-20T04:47:50;12.80;99.90
41876;DHT22;27555;50.808;4.402;2022-09-20T04:56:20;12.40;99.90
41876;DHT22;27555;50.808;4.402;2022-09-20T04:59:15;12.40;99.90
41876;DHT22;27555;50.808;4.402;2022-09-20T05:02:14;12.40;99.90
41876;DHT22;27555;50.808;4.402;2022-09-20T05:19:00;12.40;99.90
41876;DHT22;27555;50.808;4.402;2022-09-20T05:24:39;12.10;99.90
41876;DHT22;27555;50.808;4.402;2022-09-20T05:35:28;12.30;99.90
41876;DHT22;27555;50.808;4.402;2022-09-20T06:01:56;12.50;99.90
41876;DHT22;27555;50.808;4.402;2022-09-20T06:15:33;12.40;99.90
41876;DHT22;27555;50.808;4.402;2022-09-20T06:18:26;12.50;99.90
41876;DHT22;27555;50.808;4.402;2022-09-20T06:23:30;12.70;99.90
41876;DHT22;27555;50.808;4.402;2022-09-20T06:25:59;12.60;99.90
41876;DHT22;27555;50.808;4.402;2022-09-20T06:30:57;12.40;99.90
41876;DHT22;27555;50.808;4.402;2022-09-20T06:33:27;12.50;99.90
41876;DHT22;27555;50.808;4.402;2022-09-20T06:36:12;12.50;99.90
41876;DHT22;27555;50.808;4.402;2022-09-20T06:39:35;12.50;99.90
41876;DHT22;27555;50.808;4.402;2022-09-20T06:42:20;12.50;99.90
41876;DHT22;27555;50.808;4.402;2022-09-20T06:44:47;12.60;99.90
41876;DHT22;27555;50.808;4.402;2022-09-20T06:47:13;12.70;99.90
41876;DHT22;27555;50.808;4.402;2022-09-20T06:49:39;12.90;99.90
41876;DHT22;27555;50.808;4.402;2022-09-20T06:52:13;12.80;99.90
41876;DHT22;27555;50.808;4.402;2022-09-20T06:54:41;12.80;99.90
41876;DHT22;27555;50.808;4.402;2022-09-20T06:57:11;13.00;99.90
41876;DHT22;27555;50.808;4.402;2022-09-20T06:59:38;13.00;99.90
41876;DHT22;27555;50.808;4.402;2022-09-20T07:02:04;13.20;99.90
41876;DHT22;27555;50.808;4.402;2022-09-20T07:04:29;13.40;99.90
41876;DHT22;27555;50.808;4.402;2022-09-20T07:06:59;13.60;99.90
41876;DHT22;27555;50.808;4.402;2022-09-20T07:09:25;14.70;99.90
41876;DHT22;27555;50.808;4.402;2022-09-20T07:11:51;15.90;99.90
41876;DHT22;27555;50.808;4.402;2022-09-20T07:14:17;16.70;99.90
41876;DHT22;27555;50.808;4.402;2022-09-20T07:16:43;16.50;99.90
41876;DHT22;27555;50.808;4.402;2022-09-20T07:19:09;15.90;99.90
41876;DHT22;27555;50.808;4.402;2022-09-20T07:21:34;16.90;99.90
41876;DHT22;27555;50.808;4.402;2022-09-20T07:24:00;18.10;99.90
41876;DHT22;27555;50.808;4.402;2022-09-20T07:26:28;19.00;99.90
41876;DHT22;27555;50.808;4.402;2022-09-20T07:28:55;19.40;99.90
41876;DHT22;27555;50.808;4.402;2022-09-20T07:31:24;19.90;99.90
41876;DHT22;27555;50.808;4.402;2022-09-20T07:33:50;20.70;99.90
41876;DHT22;27555;50.808;4.402;2022-09-20T07:36:15;21.20;98.90
41876;DHT22;27555;50.808;4.402;2022-09-20T07:38:45;21.90;97.80
41876;DHT22;27555;50.808;4.402;2022-09-20T07:41:10;22.20;96.60
41876;DHT22;27555;50.808;4.402;2022-09-20T07:43:36;21.60;96.70
41876;DHT22;27555;50.808;4.402;2022-09-20T07:46:02;21.30;96.80
41876;DHT22;27555;50.808;4.402;2022-09-20T07:48:32;20.80;97.20
41876;DHT22;27555;50.808;4.402;2022-09-20T07:51:03;21.30;97.10
41876;DHT22;27555;50.808;4.402;2022-09-20T07:53:29;22.30;96.50
41876;DHT22;27555;50.808;4.402;2022-09-20T07:56:06;22.80;95.70
41876;DHT22;27555;50.808;4.402;2022-09-20T07:58:34;23.30;95.00
41876;DHT22;27555;50.808;4.402;2022-09-20T08:01:04;23.60;94.60
41876;DHT22;27555;50.808;4.402;2022-09-20T08:03:30;23.60;94.00
41876;DHT22;27555;50.808;4.402;2022-09-20T08:06:06;22.70;94.30
41876;DHT22;27555;50.808;4.402;2022-09-20T08:08:37;22.10;95.10
41876;DHT22;27555;50.808;4.402;2022-09-20T08:11:10;22.00;95.10
41876;DHT22;27555;50.808;4.402;2022-09-20T08:13:36;22.20;95.20
41876;DHT22;27555;50.808;4.402;2022-09-20T08:16:04;22.00;94.90
41876;DHT22;27555;50.808;4.402;2022-09-20T08:18:30;21.90;95.40
41876;DHT22;27555;50.808;4.402;2022-09-20T08:20:56;22.70;94.50
41876;DHT22;27555;50.808;4.402;2022-09-20T08:23:32;23.20;93.80
41876;DHT22;27555;50.808;4.402;2022-09-20T08:25:58;24.00;93.00
41876;DHT22;27555;50.808;4.402;2022-09-20T08:28:23;24.40;92.30
41876;DHT22;27555;50.808;4.402;2022-09-20T08:30:49;24.50;92.30
41876;DHT22;27555;50.808;4.402;2022-09-20T08:33:15;23.90;92.50
41876;DHT22;27555;50.808;4.402;2022-09-20T08:35:41;23.00;93.20
41876;DHT22;27555;50.808;4.402;2022-09-20T08:38:07;22.10;93.90
41876;DHT22;27555;50.808;4.402;2022-09-20T08:40:33;22.60;94.20
41876;DHT22;27555;50.808;4.402;2022-09-20T08:43:00;23.30;93.60
41876;DHT22;27555;50.808;4.402;2022-09-20T08:45:26;24.20;92.70
41876;DHT22;27555;50.808;4.402;2022-09-20T08:47:59;24.50;92.40
41876;DHT22;27555;50.808;4.402;2022-09-20T08:50:26;24.00;92.60
41876;DHT22;27555;50.808;4.402;2022-09-20T08:52:54;23.50;92.60
41876;DHT22;27555;50.808;4.402;2022-09-20T08:55:24;22.70;93.20
41876;DHT22;27555;50.808;4.402;2022-09-20T08:57:53;21.20;94.50
41876;DHT22;27555;50.808;4.402;2022-09-20T09:00:25;21.00;95.00
41876;DHT22;27555;50.808;4.402;2022-09-20T09:02:55;20.90;95.30
41876;DHT22;27555;50.808;4.402;2022-09-20T09:05:36;20.40;96.00
41876;DHT22;27555;50.808;4.402;2022-09-20T09:08:09;20.30;96.20
41876;DHT22;27555;50.808;4.402;2022-09-20T09:10:40;20.40;96.10
41876;DHT22;27555;50.808;4.402;2022-09-20T09:13:06;20.40;95.70
41876;DHT22;27555;50.808;4.402;2022-09-20T09:15:37;20.50;96.00
41876;DHT22;27555;50.808;4.402;2022-09-20T09:18:04;20.50;95.70
41876;DHT22;27555;50.808;4.402;2022-09-20T09:20:40;20.50;95.80
41876;DHT22;27555;50.808;4.402;2022-09-20T09:23:08;20.40;96.00
41876;DHT22;27555;50.808;4.402;2022-09-20T09:25:43;20.40;96.00
41876;DHT22;27555;50.808;4.402;2022-09-20T09:30:43;21.10;95.80
41876;DHT22;27555;50.808;4.402;2022-09-20T09:33:29;23.00;94.00
41876;DHT22;27555;50.808;4.402;2022-09-20T09:36:13;24.60;93.00
41876;DHT22;27555;50.808;4.402;2022-09-20T09:38:41;26.20;91.40
41876;DHT22;27555;50.808;4.402;2022-09-20T09:44:04;27.10;88.40
41876;DHT22;27555;50.808;4.402;2022-09-20T09:46:37;27.40;88.00
41876;DHT22;27555;50.808;4.402;2022-09-20T09:51:34;28.20;85.30
41876;DHT22;27555;50.808;4.402;2022-09-20T09:53:59;27.70;85.10
41876;DHT22;27555;50.808;4.402;2022-09-20T10:35:12;19.50;95.20
41876;DHT22;27555;50.808;4.402;2022-09-20T10:38:00;19.20;95.00
41876;DHT22;27555;50.808;4.402;2022-09-20T10:51:58;19.00;96.00
41876;DHT22;27555;50.808;4.402;2022-09-20T10:57:05;19.70;94.80
41876;DHT22;27555;50.808;4.402;2022-09-20T10:59:50;20.00;94.20
41876;DHT22;27555;50.808;4.402;2022-09-20T11:02:50;19.90;94.00
41876;DHT22;27555;50.808;4.402;2022-09-20T11:10:43;19.10;94.40
41876;DHT22;27555;50.808;4.402;2022-09-20T11:18:21;18.60;96.30
41876;DHT22;27555;50.808;4.402;2022-09-20T11:26:51;17.80;98.40
41876;DHT22;27555;50.808;4.402;2022-09-20T11:31:57;18.20;98.50
41876;DHT22;27555;50.808;4.402;2022-09-20T11:35:29;18.20;99.30
41876;DHT22;27555;50.808;4.402;2022-09-20T11:37:29;18.30;98.70
41876;DHT22;27555;50.808;4.402;2022-09-20T11:40:00;18.20;98.30
41876;DHT22;27555;50.808;4.402;2022-09-20T11:42:34;18.40;98.90
41876;DHT22;27555;50.808;4.402;2022-09-20T11:45:02;18.50;99.10
41876;DHT22;27555;50.808;4.402;2022-09-20T11:47:47;18.20;99.00
41876;DHT22;27555;50.808;4.402;2022-09-20T11:58:14;19.80;97.80
41876;DHT22;27555;50.808;4.402;2022-09-20T12:00:49;20.20;97.30
41876;DHT22;27555;50.808;4.402;2022-09-20T12:03:43;20.60;96.50
41876;DHT22;27555;50.808;4.402;2022-09-20T12:06:32;21.10;95.00
41876;DHT22;27555;50.808;4.402;2022-09-20T12:09:01;21.50;95.00
41876;DHT22;27555;50.808;4.402;2022-09-20T12:11:34;21.60;93.80
41876;DHT22;27555;50.808;4.402;2022-09-20T12:14:07;20.90;94.20
41876;DHT22;27555;50.808;4.402;2022-09-20T12:16:46;20.50;94.90
41876;DHT22;27555;50.808;4.402;2022-09-20T12:19:13;20.20;94.40
41876;DHT22;27555;50.808;4.402;2022-09-20T12:24:26;19.60;95.20
41876;DHT22;27555;50.808;4.402;2022-09-20T12:26:55;19.30;95.00
41876;DHT22;27555;50.808;4.402;2022-09-20T12:31:53;19.00;95.80
41876;DHT22;27555;50.808;4.402;2022-09-20T12:34:27;19.20;96.00
41876;DHT22;27555;50.808;4.402;2022-09-20T12:39:33;18.80;95.40
41876;DHT22;27555;50.808;4.402;2022-09-20T12:47:22;19.60;94.80
41876;DHT22;27555;50.808;4.402;2022-09-20T12:52:35;20.20;94.40
41876;DHT22;27555;50.808;4.402;2022-09-20T13:03:52;20.30;94.10
41876;DHT22;27555;50.808;4.402;2022-09-20T13:06:21;20.10;94.00
41876;DHT22;27555;50.808;4.402;2022-09-20T13:09:06;19.60;94.30
41876;DHT22;27555;50.808;4.402;2022-09-20T13:11:43;19.40;94.60
41876;DHT22;27555;50.808;4.402;2022-09-20T13:14:28;19.50;94.90
41876;DHT22;27555;50.808;4.402;2022-09-20T13:17:25;19.70;94.50
41876;DHT22;27555;50.808;4.402;2022-09-20T13:19:53;20.00;94.40
41876;DHT22;27555;50.808;4.402;2022-09-20T13:22:34;20.00;94.40
41876;DHT22;27555;50.808;4.402;2022-09-20T13:25:04;19.70;94.90
41876;DHT22;27555;50.808;4.402;2022-09-20T13:27:55;19.70;95.00
41876;DHT22;27555;50.808;4.402;2022-09-20T13:30:25;19.70;94.70
41876;DHT22;27555;50.808;4.402;2022-09-20T13:32:51;19.60;94.80
41876;DHT22;27555;50.808;4.402;2022-09-20T13:35:24;19.20;94.50
41876;DHT22;27555;50.808;4.402;2022-09-20T13:42:51;19.20;94.80
41876;DHT22;27555;50.808;4.402;2022-09-20T13:45:18;19.10;94.90
41876;DHT22;27555;50.808;4.402;2022-09-20T13:47:50;19.20;94.80
41876;DHT22;27555;50.808;4.402;2022-09-20T13:50:42;19.10;94.70
41876;DHT22;27555;50.808;4.402;2022-09-20T13:53:16;19.20;94.60
41876;DHT22;27555;50.808;4.402;2022-09-20T13:55:43;19.50;94.30
41876;DHT22;27555;50.808;4.402;2022-09-20T13:58:28;19.60;94.00
41876;DHT22;27555;50.808;4.402;2022-09-20T14:01:00;19.50;93.80
41876;DHT22;27555;50.808;4.402;2022-09-20T14:03:29;19.50;93.90
41876;DHT22;27555;50.808;4.402;2022-09-20T14:06:05;19.40;94.10
41876;DHT22;27555;50.808;4.402;2022-09-20T14:08:46;19.40;94.10
41876;DHT22;27555;50.808;4.402;2022-09-20T14:13:43;18.80;95.50
41876;DHT22;27555;50.808;4.402;2022-09-20T14:16:10;18.90;95.50
41876;DHT22;27555;50.808;4.402;2022-09-20T14:18:39;18.90;95.30
41876;DHT22;27555;50.808;4.402;2022-09-20T14:21:06;18.90;95.50
41876;DHT22;27555;50.808;4.402;2022-09-20T14:23:50;19.20;94.80
41876;DHT22;27555;50.808;4.402;2022-09-20T14:26:26;19.30;95.10
41876;DHT22;27555;50.808;4.402;2022-09-20T14:28:53;19.30;95.10
41876;DHT22;27555;50.808;4.402;2022-09-20T14:31:28;19.50;94.90
41876;DHT22;27555;50.808;4.402;2022-09-20T14:34:00;19.60;95.00
41876;DHT22;27555;50.808;4.402;2022-09-20T14:36:28;19.60;95.20
41876;DHT22;27555;50.808;4.402;2022-09-20T14:38:57;19.50;95.20
41876;DHT22;27555;50.808;4.402;2022-09-20T14:41:26;19.60;95.20
41876;DHT22;27555;50.808;4.402;2022-09-20T14:43:55;19.70;94.60
41876;DHT22;27555;50.808;4.402;2022-09-20T14:46:34;19.70;94.20
41876;DHT22;27555;50.808;4.402;2022-09-20T14:51:50;19.10;94.90
41876;DHT22;27555;50.808;4.402;2022-09-20T14:56:48;19.00;94.30
41876;DHT22;27555;50.808;4.402;2022-09-20T14:59:19;19.00;94.60
41876;DHT22;27555;50.808;4.402;2022-09-20T15:04:21;18.50;96.10
41876;DHT22;27555;50.808;4.402;2022-09-20T15:06:49;18.20;96.80
41876;DHT22;27555;50.808;4.402;2022-09-20T15:09:15;18.00;97.40
41876;DHT22;27555;50.808;4.402;2022-09-20T15:11:42;18.10;97.30
41876;DHT22;27555;50.808;4.402;2022-09-20T15:14:08;18.20;97.60
41876;DHT22;27555;50.808;4.402;2022-09-20T15:16:34;18.40;97.40
41876;DHT22;27555;50.808;4.402;2022-09-20T15:18:59;18.30;97.10
41876;DHT22;27555;50.808;4.402;2022-09-20T15:21:25;18.50;97.20
41876;DHT22;27555;50.808;4.402;2022-09-20T15:23:51;18.60;96.50
41876;DHT22;27555;50.808;4.402;2022-09-20T15:26:24;18.60;96.50
41876;DHT22;27555;50.808;4.402;2022-09-20T15:28:50;18.50;97.10
41876;DHT22;27555;50.808;4.402;2022-09-20T15:31:16;18.50;96.80
41876;DHT22;27555;50.808;4.402;2022-09-20T15:33:44;18.40;97.00
41876;DHT22;27555;50.808;4.402;2022-09-20T15:36:10;18.30;97.10
41876;DHT22;27555;50.808;4.402;2022-09-20T15:38:36;18.50;97.00
41876;DHT22;27555;50.808;4.402;2022-09-20T15:41:02;18.40;96.80
41876;DHT22;27555;50.808;4.402;2022-09-20T15:43:29;18.40;96.90
41876;DHT22;27555;50.808;4.402;2022-09-20T15:45:59;18.70;96.70
41876;DHT22;27555;50.808;4.402;2022-09-20T15:48:27;18.50;96.50
41876;DHT22;27555;50.808;4.402;2022-09-20T15:53:42;18.10;96.90
41876;DHT22;27555;50.808;4.402;2022-09-20T15:58:46;18.10;96.80
41876;DHT22;27555;50.808;4.402;2022-09-20T16:01:12;18.10;96.80
41876;DHT22;27555;50.808;4.402;2022-09-20T16:03:41;18.10;96.70
41876;DHT22;27555;50.808;4.402;2022-09-20T16:06:07;18.30;96.40
41876;DHT22;27555;50.808;4.402;2022-09-20T16:08:34;18.40;96.40
41876;DHT22;27555;50.808;4.402;2022-09-20T16:11:00;18.40;96.30
41876;DHT22;27555;50.808;4.402;2022-09-20T16:13:27;18.50;95.90
41876;DHT22;27555;50.808;4.402;2022-09-20T16:15:56;18.30;96.00
41876;DHT22;27555;50.808;4.402;2022-09-20T16:18:23;18.10;96.30
41876;DHT22;27555;50.808;4.402;2022-09-20T16:21:08;17.90;96.80
41876;DHT22;27555;50.808;4.402;2022-09-20T16:23:36;17.90;97.00
41876;DHT22;27555;50.808;4.402;2022-09-20T16:26:04;17.90;97.00
41876;DHT22;27555;50.808;4.402;2022-09-20T16:28:30;17.70;96.90
41876;DHT22;27555;50.808;4.402;2022-09-20T16:30:57;17.80;96.80
41876;DHT22;27555;50.808;4.402;2022-09-20T16:33:22;17.80;96.90
41876;DHT22;27555;50.808;4.402;2022-09-20T16:35:48;17.80;97.00
41876;DHT22;27555;50.808;4.402;2022-09-20T16:38:14;17.60;97.10
41876;DHT22;27555;50.808;4.402;2022-09-20T16:40:40;17.40;97.50
41876;DHT22;27555;50.808;4.402;2022-09-20T16:43:05;17.10;98.00
41876;DHT22;27555;50.808;4.402;2022-09-20T16:45:33;16.90;98.40
41876;DHT22;27555;50.808;4.402;2022-09-20T16:47:59;16.70;98.90
41876;DHT22;27555;50.808;4.402;2022-09-20T16:50:27;16.70;98.80
41876;DHT22;27555;50.808;4.402;2022-09-20T16:52:52;16.90;98.70
41876;DHT22;27555;50.808;4.402;2022-09-20T16:55:18;17.00;98.70
41876;DHT22;27555;50.808;4.402;2022-09-20T16:57:50;17.00;98.70
41876;DHT22;27555;50.808;4.402;2022-09-20T17:00:16;17.10;98.50
41876;DHT22;27555;50.808;4.402;2022-09-20T17:02:48;17.10;98.60
41876;DHT22;27555;50.808;4.402;2022-09-20T17:05:15;17.20;98.70
41876;DHT22;27555;50.808;4.402;2022-09-20T17:07:40;16.90;98.30
41876;DHT22;27555;50.808;4.402;2022-09-20T17:10:08;16.80;98.60
41876;DHT22;27555;50.808;4.402;2022-09-20T17:12:34;16.90;98.60
41876;DHT22;27555;50.808;4.402;2022-09-20T17:15:06;16.80;98.70
41876;DHT22;27555;50.808;4.402;2022-09-20T17:17:32;16.80;98.70
41876;DHT22;27555;50.808;4.402;2022-09-20T17:19:58;16.70;98.90
41876;DHT22;27555;50.808;4.402;2022-09-20T17:22:26;16.60;99.00
41876;DHT22;27555;50.808;4.402;2022-09-20T17:24:52;16.60;99.10
41876;DHT22;27555;50.808;4.402;2022-09-20T17:27:17;16.60;99.40
41876;DHT22;27555;50.808;4.402;2022-09-20T17:29:43;16.50;99.40
41876;DHT22;27555;50.808;4.402;2022-09-20T17:32:09;16.40;99.60
41876;DHT22;27555;50.808;4.402;2022-09-20T17:34:35;16.40;99.80
41876;DHT22;27555;50.808;4.402;2022-09-20T17:37:01;16.40;99.80
41876;DHT22;27555;50.808;4.402;2022-09-20T17:39:27;16.40;99.90
41876;DHT22;27555;50.808;4.402;2022-09-20T17:41:53;16.50;99.90
41876;DHT22;27555;50.808;4.402;2022-09-20T17:44:18;16.40;99.90
41876;DHT22;27555;50.808;4.402;2022-09-20T17:46:46;16.50;99.90
41876;DHT22;27555;50.808;4.402;2022-09-20T17:49:17;16.50;99.90
41876;DHT22;27555;50.808;4.402;2022-09-20T17:51:50;16.50;99.90
41876;DHT22;27555;50.808;4.402;2022-09-20T17:54:16;16.40;99.90
41876;DHT22;27555;50.808;4.402;2022-09-20T17:56:45;16.30;99.90
41876;DHT22;27555;50.808;4.402;2022-09-20T17:59:13;16.20;99.90
41876;DHT22;27555;50.808;4.402;2022-09-20T18:01:46;16.10;99.90
41876;DHT22;27555;50.808;4.402;2022-09-20T18:04:16;16.10;99.90
41876;DHT22;27555;50.808;4.402;2022-09-20T18:06:51;16.00;99.90
41876;DHT22;27555;50.808;4.402;2022-09-20T18:09:24;15.90;99.90
41876;DHT22;27555;50.808;4.402;2022-09-20T18:11:53;15.80;99.90
41876;DHT22;27555;50.808;4.402;2022-09-20T18:14:25;15.80;99.90
41876;DHT22;27555;50.808;4.402;2022-09-20T18:16:53;15.70;99.90
41876;DHT22;27555;50.808;4.402;2022-09-20T18:19:19;15.60;99.90
41876;DHT22;27555;50.808;4.402;2022-09-20T18:21:47;15.60;99.90
41876;DHT22;27555;50.808;4.402;2022-09-20T18:24:12;15.50;99.90
41876;DHT22;27555;50.808;4.402;2022-09-20T18:26:39;15.50;99.90
41876;DHT22;27555;50.808;4.402;2022-09-20T18:29:09;15.40;99.90
41876;DHT22;27555;50.808;4.402;2022-09-20T18:31:39;15.30;99.90
41876;DHT22;27555;50.808;4.402;2022-09-20T18:34:10;15.30;99.90
41876;DHT22;27555;50.808;4.402;2022-09-20T18:36:39;15.20;99.90
41876;DHT22;27555;50.808;4.402;2022-09-20T18:39:06;15.10;99.90
41876;DHT22;27555;50.808;4.402;2022-09-20T18:41:34;15.00;99.90
41876;DHT22;27555;50.808;4.402;2022-09-20T18:44:03;15.00;99.90
41876;DHT22;27555;50.808;4.402;2022-09-20T18:46:35;15.00;99.90
41876;DHT22;27555;50.808;4.402;2022-09-20T18:49:06;15.00;99.90
41876;DHT22;27555;50.808;4.402;2022-09-20T18:51:41;14.90;99.90
41876;DHT22;27555;50.808;4.402;2022-09-20T18:54:09;14.90;99.90
41876;DHT22;27555;50.808;4.402;2022-09-20T18:56:38;14.80;99.90
41876;DHT22;27555;50.808;4.402;2022-09-20T18:59:16;14.80;99.90
41876;DHT22;27555;50.808;4.402;2022-09-20T19:07:19;14.60;99.90
41876;DHT22;27555;50.808;4.402;2022-09-20T19:13:10;14.50;99.90
41876;DHT22;27555;50.808;4.402;2022-09-20T19:26:57;14.30;99.90
41876;DHT22;27555;50.808;4.402;2022-09-20T19:29:25;14.20;99.90
41876;DHT22;27555;50.808;4.402;2022-09-20T19:31:56;14.20;99.90
41876;DHT22;27555;50.808;4.402;2022-09-20T19:34:29;14.20;99.90
41876;DHT22;27555;50.808;4.402;2022-09-20T19:37:08;14.20;99.90
41876;DHT22;27555;50.808;4.402;2022-09-20T19:48:41;14.10;99.90
41876;DHT22;27555;50.808;4.402;2022-09-20T19:51:10;14.00;99.90
41876;DHT22;27555;50.808;4.402;2022-09-20T19:53:36;14.00;99.90
41876;DHT22;27555;50.808;4.402;2022-09-20T19:56:19;14.00;99.90
41876;DHT22;27555;50.808;4.402;2022-09-20T19:58:50;14.00;99.90
41876;DHT22;27555;50.808;4.402;2022-09-20T20:01:19;14.00;99.90
41876;DHT22;27555;50.808;4.402;2022-09-20T20:03:45;13.90;99.90
41876;DHT22;27555;50.808;4.402;2022-09-20T20:06:33;13.80;99.90
41876;DHT22;27555;50.808;4.402;2022-09-20T20:09:08;13.90;99.90
41876;DHT22;27555;50.808;4.402;2022-09-20T20:20:06;13.70;99.90
41876;DHT22;27555;50.808;4.402;2022-09-20T20:22:46;13.70;99.90
41876;DHT22;27555;50.808;4.402;2022-09-20T20:25:24;13.70;99.90
41876;DHT22;27555;50.808;4.402;2022-09-20T20:27:52;13.70;99.90
41876;DHT22;27555;50.808;4.402;2022-09-20T20:30:19;13.60;99.90
41876;DHT22;27555;50.808;4.402;2022-09-20T20:32:45;13.60;99.90
41876;DHT22;27555;50.808;4.402;2022-09-20T20:35:10;13.60;99.90
41876;DHT22;27555;50.808;4.402;2022-09-20T20:37:37;13.50;99.90
41876;DHT22;27555;50.808;4.402;2022-09-20T20:40:04;13.60;99.90
41876;DHT22;27555;50.808;4.402;2022-09-20T20:42:36;13.50;99.90
41876;DHT22;27555;50.808;4.402;2022-09-20T20:45:02;13.40;99.90
41876;DHT22;27555;50.808;4.402;2022-09-20T20:47:27;13.40;99.90
41876;DHT22;27555;50.808;4.402;2022-09-20T20:49:53;13.40;99.90
41876;DHT22;27555;50.808;4.402;2022-09-20T20:52:19;13.30;99.90
41876;DHT22;27555;50.808;4.402;2022-09-20T20:54:44;13.30;99.90
41876;DHT22;27555;50.808;4.402;2022-09-20T20:57:10;13.20;99.90
41876;DHT22;27555;50.808;4.402;2022-09-20T20:59:36;13.30;99.90
41876;DHT22;27555;50.808;4.402;2022-09-20T21:02:01;13.20;99.90
41876;DHT22;27555;50.808;4.402;2022-09-20T21:04:27;13.00;99.90
41876;DHT22;27555;50.808;4.402;2022-09-20T21:06:53;13.00;99.90
41876;DHT22;27555;50.808;4.402;2022-09-20T21:09:19;13.00;99.90
41876;DHT22;27555;50.808;4.402;2022-09-20T21:11:44;13.00;99.90
41876;DHT22;27555;50.808;4.402;2022-09-20T21:14:12;13.00;99.90
41876;DHT22;27555;50.808;4.402;2022-09-20T21:16:41;13.00;99.90
41876;DHT22;27555;50.808;4.402;2022-09-20T21:19:08;13.00;99.90
41876;DHT22;27555;50.808;4.402;2022-09-20T21:21:38;12.80;99.90
41876;DHT22;27555;50.808;4.402;2022-09-20T21:24:06;12.80;99.90
41876;DHT22;27555;50.808;4.402;2022-09-20T21:26:33;12.90;99.90
41876;DHT22;27555;50.808;4.402;2022-09-20T21:29:01;12.90;99.90
41876;DHT22;27555;50.808;4.402;2022-09-20T21:31:31;12.90;99.90
41876;DHT22;27555;50.808;4.402;2022-09-20T21:33:57;12.80;99.90
41876;DHT22;27555;50.808;4.402;2022-09-20T21:36:25;12.80;99.90
41876;DHT22;27555;50.808;4.402;2022-09-20T21:38:51;12.70;99.90
41876;DHT22;27555;50.808;4.402;2022-09-20T21:41:25;12.70;99.90